Time;durP1;ratioP1;P1;durP2;ratioP2;P2;SDS_P1;SDS_P2;PMS_P1;PMS_P2;Temp;Humidity;BMP_temperature;BMP_pressure;BME280_temperature;BME280_humidity;BME280_pressure;Samples;Min_cycle;Max_cycle;Signal;HPM_P1;HPM_P2
2021/01/24 00:01:04;;;;;;;9.00;5.13;;;;;;;1.26;90.24;96511.47;4995432;28;20493;-74
2021/01/24 00:03:29;;;;;;;9.45;5.30;;;;;;;1.14;89.92;96497.09;4995430;28;20027;-73
2021/01/24 00:05:54;;;;;;;8.55;4.63;;;;;;;1.13;90.35;96501.59;4995190;28;20022;-74
2021/01/24 00:08:22;;;;;;;9.82;5.40;;;;;;;1.02;90.41;96480.84;4999542;28;20046;-74
2021/01/24 00:10:47;;;;;;;9.32;5.22;;;;;;;1.16;90.93;96519.84;5002248;28;20034;-75
2021/01/24 00:13:12;;;;;;;8.32;4.60;;;;;;;1.05;90.49;96499.13;4997071;28;20476;-75
2021/01/24 00:15:37;;;;;;;9.75;4.88;;;;;;;1.14;91.08;96521.06;4996311;28;20102;-74
2021/01/24 00:18:03;;;;;;;8.68;4.97;;;;;;;1.06;91.33;96511.41;4988504;28;20045;-74
2021/01/24 00:20:28;;;;;;;10.93;5.20;;;;;;;1.12;91.33;96526.56;4995130;28;20101;-74
2021/01/24 00:22:53;;;;;;;11.88;5.78;;;;;;;1.08;91.49;96520.84;4992636;28;20041;-74
2021/01/24 00:25:19;;;;;;;8.13;4.60;;;;;;;1.02;91.49;96526.97;4992743;28;20034;-74
2021/01/24 00:27:44;;;;;;;10.07;5.10;;;;;;;0.88;91.79;96511.94;4994487;28;20030;-74
2021/01/24 00:30:11;;;;;;;9.60;4.65;;;;;;;0.88;91.82;96522.59;4978344;28;20517;-73
2021/01/24 00:32:36;;;;;;;7.60;4.75;;;;;;;0.95;91.96;96526.13;4978660;28;20234;-74
2021/01/24 00:35:03;;;;;;;7.30;4.32;;;;;;;0.96;92.36;96532.25;5012713;28;20073;-73
2021/01/24 00:37:28;;;;;;;11.40;4.72;;;;;;;0.91;92.30;96529.34;4988189;28;20037;-73
2021/01/24 00:39:53;;;;;;;9.68;4.50;;;;;;;0.86;92.28;96527.28;4975126;28;20026;-73
2021/01/24 00:42:19;;;;;;;7.40;4.28;;;;;;;0.71;92.25;96508.81;4985509;28;20034;-74
2021/01/24 00:44:44;;;;;;;8.27;4.20;;;;;;;0.80;92.39;96523.56;4992678;28;20025;-73
2021/01/24 00:47:09;;;;;;;8.52;4.60;;;;;;;0.89;92.21;96532.22;4990544;28;20109;-73
2021/01/24 00:49:34;;;;;;;6.15;3.80;;;;;;;0.79;92.51;96521.94;4977354;28;20535;-73
2021/01/24 00:52:00;;;;;;;5.32;3.55;;;;;;;0.80;92.27;96522.75;4992274;28;20038;-73
2021/01/24 00:54:25;;;;;;;6.20;3.78;;;;;;;0.86;92.41;96533.47;4990610;28;20026;-73
2021/01/24 00:56:50;;;;;;;7.05;3.95;;;;;;;0.88;92.33;96530.56;4974409;28;20027;-74
2021/01/24 00:59:16;;;;;;;6.57;3.85;;;;;;;0.91;92.28;96522.19;4981034;28;20677;-73
2021/01/24 01:01:41;;;;;;;7.75;3.97;;;;;;;0.94;92.34;96532.44;4993165;28;20018;-74
2021/01/24 01:04:06;;;;;;;9.50;3.83;;;;;;;1.02;92.13;96531.44;4988074;28;20037;-73
2021/01/24 01:06:31;;;;;;;6.30;3.55;;;;;;;0.81;91.88;96503.94;4990409;28;20026;-73
2021/01/24 01:08:57;;;;;;;6.88;3.55;;;;;;;1.01;92.00;96517.31;4994141;28;20495;-73
2021/01/24 01:11:22;;;;;;;6.88;4.15;;;;;;;0.80;91.96;96504.13;4992531;28;20089;-73
2021/01/24 01:13:47;;;;;;;11.57;4.65;;;;;;;0.99;91.68;96513.22;4992547;28;20026;-73
2021/01/24 01:16:13;;;;;;;7.22;4.07;;;;;;;0.92;92.10;96509.69;4993546;28;20022;-73
2021/01/24 01:18:38;;;;;;;7.25;3.90;;;;;;;0.93;92.00;96508.69;4993855;28;20053;-73
2021/01/24 01:21:04;;;;;;;6.90;3.60;;;;;;;0.99;91.95;96524.69;4993659;28;20022;-73
2021/01/24 01:23:29;;;;;;;7.68;3.88;;;;;;;0.93;91.92;96527.31;4993247;28;20022;-73
2021/01/24 01:25:55;;;;;;;5.78;3.45;;;;;;;0.96;92.07;96516.28;4993195;28;20030;-73
2021/01/24 01:28:20;;;;;;;5.75;3.58;;;;;;;0.95;91.74;96526.13;4993145;28;20034;-72
2021/01/24 01:30:46;;;;;;;5.55;3.83;;;;;;;0.79;91.79;96500.66;4993689;28;20030;-73
2021/01/24 01:33:11;;;;;;;5.28;3.60;;;;;;;0.97;92.06;96524.06;4993676;28;20116;-72
2021/01/24 01:35:36;;;;;;;4.35;3.00;;;;;;;0.94;92.00;96508.47;4993533;28;20033;-72
2021/01/24 01:38:02;;;;;;;5.30;3.28;;;;;;;1.00;91.84;96521.00;4987696;28;20091;-72
2021/01/24 01:40:28;;;;;;;5.45;3.38;;;;;;;1.03;91.73;96522.44;5006986;28;20104;-71
2021/01/24 01:42:56;;;;;;;4.70;2.88;;;;;;;1.03;91.53;96507.28;5015255;28;20048;-72
2021/01/24 01:45:21;;;;;;;4.55;3.00;;;;;;;1.20;91.60;96517.59;5010907;28;21578;-70
2021/01/24 01:47:46;;;;;;;5.53;3.33;;;;;;;1.25;91.28;96513.28;5012181;28;20065;-72
2021/01/24 01:50:12;;;;;;;5.32;3.15;;;;;;;1.20;91.37;96501.59;5002714;28;20083;-71
2021/01/24 01:52:37;;;;;;;4.53;2.85;;;;;;;1.23;91.13;96503.84;5012698;28;20034;-71
2021/01/24 01:55:03;;;;;;;5.38;3.33;;;;;;;1.18;91.42;96490.31;5008663;28;20432;-71
2021/01/24 01:57:28;;;;;;;4.43;2.55;;;;;;;1.39;91.12;96523.97;4993171;28;20049;-70
2021/01/24 01:59:53;;;;;;;3.88;2.65;;;;;;;1.50;90.46;96521.56;4992685;28;20121;-70
2021/01/24 02:02:45;;;;;;;4.97;2.75;;;;;;;1.38;90.31;96504.50;4993678;28;20456;-71
2021/01/24 02:05:17;;;;;;;4.03;2.22;;;;;;;1.50;89.74;96510.09;4992128;28;20622;-70
2021/01/24 02:07:52;;;;;;;3.17;2.30;;;;;;;1.35;90.10;96498.78;4985648;28;20022;-70
2021/01/24 02:10:39;;;;;;;3.40;2.65;;;;;;;1.44;90.49;96519.72;4977930;28;20118;-71
2021/01/24 02:13:11;;;;;;;3.08;2.22;;;;;;;1.44;90.34;96510.88;4974755;28;20122;-70
2021/01/24 02:15:41;;;;;;;5.53;2.63;;;;;;;1.45;90.76;96515.19;4981553;28;20030;-70
2021/01/24 02:18:07;;;;;;;4.85;2.53;;;;;;;1.39;90.22;96508.00;4991049;28;20121;-70
2021/01/24 02:20:44;;;;;;;4.82;2.30;;;;;;;1.56;90.55;96521.78;4993768;28;20049;-70
2021/01/24 02:23:11;;;;;;;4.78;2.88;;;;;;;1.53;90.52;96537.13;4993618;28;20030;-70
2021/01/24 02:26:03;;;;;;;5.15;2.90;;;;;;;1.57;90.92;96552.72;4983529;28;20447;-71
2021/01/24 02:28:43;;;;;;;5.25;3.00;;;;;;;1.49;90.71;96565.22;4980155;28;20045;-71
2021/01/24 02:31:09;;;;;;;3.88;2.38;;;;;;;1.42;90.67;96569.72;4983700;28;20031;-70
2021/01/24 02:33:38;;;;;;;4.03;2.20;;;;;;;1.42;91.04;96585.69;4976577;28;20038;-70
2021/01/24 02:36:07;;;;;;;3.50;1.83;;;;;;;1.44;89.97;96572.16;4990255;28;20038;-70
2021/01/24 02:38:33;;;;;;;2.40;1.40;;;;;;;1.44;90.24;96591.66;4990080;28;20037;-71
2021/01/24 02:40:59;;;;;;;3.10;1.30;;;;;;;1.28;90.11;96578.66;4989176;28;20034;-70
2021/01/24 02:43:24;;;;;;;2.70;0.70;;;;;;;1.16;89.87;96570.44;4985738;28;20036;-70
2021/01/24 02:45:51;;;;;;;0.63;0.40;;;;;;;1.24;89.55;96598.75;4981980;28;20480;-70
2021/01/24 02:48:18;;;;;;;0.52;0.40;;;;;;;1.21;89.38;96604.47;4986691;28;20031;-71
2021/01/24 02:50:45;;;;;;;0.77;0.45;;;;;;;0.98;89.39;96604.75;4973949;28;20027;-70
2021/01/24 02:53:13;;;;;;;0.50;0.47;;;;;;;1.03;89.99;96624.44;4979095;28;20033;-71
2021/01/24 02:55:38;;;;;;;0.60;0.47;;;;;;;0.93;89.31;96620.50;4992268;28;20036;-70
2021/01/24 02:58:04;;;;;;;0.38;0.35;;;;;;;0.94;90.31;96630.13;4984297;28;20467;-70
2021/01/24 03:00:29;;;;;;;0.70;0.50;;;;;;;0.85;89.71;96635.59;5002025;28;20030;-70
2021/01/24 03:02:55;;;;;;;0.70;0.70;;;;;;;0.85;89.41;96642.78;4990244;28;20034;-71
2021/01/24 03:05:21;;;;;;;0.98;0.70;;;;;;;0.75;89.86;96636.97;4991481;28;20113;-70
2021/01/24 03:07:47;;;;;;;0.75;0.65;;;;;;;0.85;89.76;96654.25;4987989;28;20559;-71
2021/01/24 03:10:14;;;;;;;1.08;0.80;;;;;;;0.87;89.63;96660.19;4990432;28;20034;-70
2021/01/24 03:13:13;;;;;;;1.15;0.88;;;;;;;0.88;87.68;96658.34;4991481;28;20029;-70
2021/01/24 03:15:39;;;;;;;1.58;1.25;;;;;;;0.89;88.04;96673.28;4985993;28;20110;-70
2021/01/24 03:18:08;;;;;;;1.45;1.10;;;;;;;0.95;87.79;96677.84;4991486;28;20105;-70
2021/01/24 03:20:39;;;;;;;1.50;1.30;;;;;;;0.94;87.70;96681.53;5007384;28;20365;-70
2021/01/24 03:23:05;;;;;;;1.67;1.10;;;;;;;0.98;87.59;96690.78;4987969;28;20030;-70
2021/01/24 03:25:32;;;;;;;2.55;1.25;;;;;;;1.03;86.59;96699.00;4995245;28;20456;-70
2021/01/24 03:27:58;;;;;;;1.63;1.15;;;;;;;1.03;86.63;96708.84;4992955;28;20034;-70
2021/01/24 03:30:24;;;;;;;2.50;1.40;;;;;;;1.08;86.04;96711.75;4993573;28;20030;-70
2021/01/24 03:32:49;;;;;;;2.92;1.40;;;;;;;0.95;85.64;96709.00;4990531;28;20026;-70
2021/01/24 03:35:15;;;;;;;3.53;1.98;;;;;;;0.91;85.94;96710.38;4995638;28;20612;-70
2021/01/24 03:37:40;;;;;;;3.03;1.77;;;;;;;1.03;85.02;96724.81;4986088;28;22910;-70
2021/01/24 03:40:06;;;;;;;3.92;2.35;;;;;;;1.01;84.64;96735.66;4978831;28;20101;-71
2021/01/24 03:42:31;;;;;;;3.70;1.95;;;;;;;1.03;84.65;96736.28;4985307;28;20404;-70
2021/01/24 03:44:56;;;;;;;4.60;2.78;;;;;;;0.99;84.74;96747.50;4994295;28;20026;-71
2021/01/24 03:47:22;;;;;;;4.40;2.85;;;;;;;0.97;84.03;96737.06;4984418;28;20490;-71
2021/01/24 03:49:47;;;;;;;4.40;2.53;;;;;;;0.93;83.83;96737.63;4987859;28;20034;-70
2021/01/24 03:52:13;;;;;;;3.80;2.50;;;;;;;0.96;83.72;96756.69;4994398;28;20091;-70
2021/01/24 03:54:38;;;;;;;9.70;3.00;;;;;;;0.82;84.10;96729.16;4995000;28;20045;-70
2021/01/24 03:57:03;;;;;;;4.70;2.78;;;;;;;0.89;83.01;96750.50;4976612;28;20097;-70
2021/01/24 03:59:28;;;;;;;7.22;3.03;;;;;;;0.95;82.88;96757.72;4986831;28;20366;-70
2021/01/24 04:01:54;;;;;;;5.72;3.15;;;;;;;0.90;82.07;96762.00;4984231;28;20030;-70
2021/01/24 04:04:19;;;;;;;5.10;2.70;;;;;;;0.78;82.51;96764.34;4993573;28;20026;-69
2021/01/24 04:06:45;;;;;;;4.93;2.85;;;;;;;0.95;81.65;96780.88;4996361;28;20469;-69
2021/01/24 04:09:10;;;;;;;5.22;2.88;;;;;;;0.95;81.39;96778.22;4991092;28;20030;-69
2021/01/24 04:11:35;;;;;;;5.80;2.97;;;;;;;1.01;79.33;96778.25;4988800;28;20038;-69
2021/01/24 04:14:01;;;;;;;7.50;3.05;;;;;;;0.94;80.43;96785.34;4990308;28;20035;-69
2021/01/24 04:16:26;;;;;;;5.65;2.50;;;;;;;0.93;79.98;96783.72;4994620;28;20492;-69
2021/01/24 04:18:51;;;;;;;5.68;2.33;;;;;;;0.93;79.39;96789.03;4993959;28;20118;-69
2021/01/24 04:21:17;;;;;;;5.47;2.58;;;;;;;0.80;79.73;96773.78;4988135;28;20489;-68
2021/01/24 04:23:42;;;;;;;4.50;2.35;;;;;;;0.82;78.36;96777.06;4993794;28;20037;-68
2021/01/24 04:26:09;;;;;;;4.40;2.55;;;;;;;0.85;78.10;96778.53;4986163;28;20031;-68
2021/01/24 04:28:34;;;;;;;3.08;2.45;;;;;;;0.73;76.77;96764.09;4977446;28;20529;-69
2021/01/24 04:30:59;;;;;;;6.13;2.50;;;;;;;0.88;77.33;96791.47;4983483;28;20045;-69
2021/01/24 04:33:25;;;;;;;3.83;2.20;;;;;;;0.81;77.72;96790.56;4994916;28;20038;-69
2021/01/24 04:35:50;;;;;;;4.72;2.75;;;;;;;0.77;79.29;96807.94;4994011;28;20041;-68
2021/01/24 04:38:15;;;;;;;5.70;2.00;;;;;;;0.84;76.91;96804.34;4995294;28;20061;-69
2021/01/24 04:40:41;;;;;;;6.85;2.45;;;;;;;0.83;77.16;96788.53;4980924;28;20034;-68
2021/01/24 04:43:06;;;;;;;4.82;2.25;;;;;;;0.83;76.87;96807.19;4991716;28;20053;-68
2021/01/24 04:45:32;;;;;;;5.93;2.13;;;;;;;0.74;78.28;96808.34;4993551;28;20113;-71
2021/01/24 04:47:57;;;;;;;5.25;2.25;;;;;;;0.69;77.88;96808.09;4993830;28;20368;-70
2021/01/24 04:50:25;;;;;;;5.03;2.50;;;;;;;0.73;77.36;96812.81;4985845;28;20157;-68
2021/01/24 04:52:51;;;;;;;4.75;2.45;;;;;;;0.66;77.12;96803.97;4992184;28;20737;-68
2021/01/24 04:55:16;;;;;;;5.45;2.20;;;;;;;0.71;77.43;96829.97;4993860;28;20109;-68
2021/01/24 04:57:42;;;;;;;4.65;2.40;;;;;;;0.59;77.03;96819.84;4996051;28;20027;-68
2021/01/24 05:00:08;;;;;;;7.45;2.38;;;;;;;0.55;77.62;96793.81;4991574;28;20026;-68
2021/01/24 05:02:35;;;;;;;3.90;2.15;;;;;;;0.60;77.01;96810.88;4992215;28;20504;-68
2021/01/24 05:05:00;;;;;;;4.03;2.05;;;;;;;0.74;76.84;96835.75;4980522;28;20050;-68
2021/01/24 05:07:26;;;;;;;3.03;1.80;;;;;;;0.72;76.21;96834.31;4990772;28;20512;-68
2021/01/24 05:09:51;;;;;;;5.53;2.30;;;;;;;0.68;76.12;96817.88;4984607;28;20401;-68
2021/01/24 05:12:18;;;;;;;5.00;2.20;;;;;;;0.73;76.29;96838.59;4980358;28;20046;-69
2021/01/24 05:14:48;;;;;;;4.40;2.30;;;;;;;0.66;75.87;96811.94;4978243;28;20555;-68
2021/01/24 05:17:13;;;;;;;3.17;1.98;;;;;;;0.55;75.87;96807.94;4990715;28;20037;-68
2021/01/24 05:19:39;;;;;;;5.30;2.17;;;;;;;0.64;76.21;96822.75;4985214;28;20030;-68
2021/01/24 05:22:04;;;;;;;4.25;2.30;;;;;;;0.65;75.95;96828.91;4981564;28;20053;-68
2021/01/24 05:24:31;;;;;;;8.13;2.53;;;;;;;0.68;75.35;96839.16;4993295;28;20156;-70
2021/01/24 05:27:06;;;;;;;4.80;2.05;;;;;;;0.62;75.68;96838.09;4988102;28;20507;-70
2021/01/24 05:29:34;;;;;;;2.83;2.05;;;;;;;0.47;76.21;96826.66;4994655;28;20026;-70
2021/01/24 05:32:01;;;;;;;4.57;2.00;;;;;;;0.43;75.77;96818.25;4992494;28;20034;-69
2021/01/24 05:34:28;;;;;;;6.45;2.13;;;;;;;0.52;76.16;96856.19;4992003;28;20034;-69
2021/01/24 05:36:54;;;;;;;4.88;2.17;;;;;;;0.49;75.82;96848.59;4987714;28;20037;-69
2021/01/24 05:39:20;;;;;;;5.25;1.73;;;;;;;0.54;74.90;96872.81;4984754;28;20101;-69
2021/01/24 05:41:51;;;;;;;3.78;2.30;;;;;;;0.48;74.53;96864.75;4989514;28;20033;-70
2021/01/24 05:44:18;;;;;;;5.32;1.92;;;;;;;0.43;74.77;96873.28;4994556;28;20018;-70
2021/01/24 05:46:44;;;;;;;5.03;2.05;;;;;;;0.37;74.50;96884.69;4988670;28;20037;-69
2021/01/24 05:49:12;;;;;;;4.45;2.05;;;;;;;0.35;74.06;96894.69;4988797;28;20425;-67
2021/01/24 05:51:39;;;;;;;3.03;1.95;;;;;;;0.27;74.96;96889.47;4990445;28;20057;-68
2021/01/24 05:54:04;;;;;;;2.92;1.58;;;;;;;0.14;73.84;96869.66;4990862;28;20216;-68
2021/01/24 05:56:31;;;;;;;5.63;1.63;;;;;;;0.37;72.38;96893.50;4993872;28;20034;-68
2021/01/24 05:58:57;;;;;;;3.53;1.80;;;;;;;0.31;72.61;96907.50;4992136;28;20030;-68
2021/01/24 06:01:24;;;;;;;3.28;1.75;;;;;;;0.20;73.33;96902.66;4978994;28;20481;-68
2021/01/24 06:03:50;;;;;;;2.85;1.80;;;;;;;0.22;72.95;96911.31;4978009;28;20473;-68
2021/01/24 06:06:15;;;;;;;2.65;1.58;;;;;;;0.31;72.07;96906.69;5001627;28;20034;-68
2021/01/24 06:08:41;;;;;;;3.35;1.75;;;;;;;0.35;71.65;96919.44;4975313;28;20109;-68
2021/01/24 06:11:07;;;;;;;4.78;2.22;;;;;;;0.31;72.22;96917.34;4995252;28;20034;-68
2021/01/24 06:13:34;;;;;;;3.58;2.00;;;;;;;0.25;72.11;96926.06;4985876;28;20027;-69
2021/01/24 06:16:08;;;;;;;2.80;2.00;;;;;;;0.20;72.74;96932.75;4986281;28;20060;-69
2021/01/24 06:18:44;;;;;;;9.00;2.95;;;;;;;0.12;73.06;96927.53;4987539;28;20033;-69
2021/01/24 06:21:18;;;;;;;4.50;2.10;;;;;;;0.10;73.42;96937.50;4990664;28;20392;-69
2021/01/24 06:23:50;;;;;;;5.93;2.10;;;;;;;0.06;73.29;96946.06;4988815;28;20492;-69
2021/01/24 06:26:16;;;;;;;4.30;2.35;;;;;;;0.14;72.33;96946.78;4993842;28;20042;-68
2021/01/24 06:28:44;;;;;;;4.28;2.10;;;;;;;0.07;73.02;96937.06;4977566;28;20496;-69
2021/01/24 06:31:14;;;;;;;3.97;2.10;;;;;;;0.03;72.42;96941.09;4988458;28;20053;-69
2021/01/24 06:33:44;;;;;;;7.43;2.25;;;;;;;0.05;72.77;96950.53;4983747;28;20023;-69
2021/01/24 06:36:09;;;;;;;3.72;2.13;;;;;;;-0.06;73.39;96953.66;4992360;28;20116;-71
2021/01/24 06:38:38;;;;;;;6.40;2.22;;;;;;;-0.17;73.27;96946.13;4987757;28;20556;-72
2021/01/24 06:41:09;;;;;;;7.13;2.25;;;;;;;-0.11;73.96;96966.66;5005676;28;20014;-73
2021/01/24 06:43:48;;;;;;;3.80;2.22;;;;;;;-0.04;73.54;96946.31;4993912;28;20113;-72
2021/01/24 06:46:35;;;;;;;4.20;2.55;;;;;;;-0.03;73.65;96969.22;4995549;28;20029;-73
2021/01/24 06:49:00;;;;;;;3.28;1.77;;;;;;;-0.05;73.07;96972.09;5008069;28;20031;-72
2021/01/24 06:51:40;;;;;;;4.68;2.05;;;;;;;0.01;73.43;96970.53;5006158;28;20031;-74
2021/01/24 06:54:15;;;;;;;3.08;2.03;;;;;;;-0.01;73.72;96976.00;5011758;28;21005;-73
2021/01/24 06:56:42;;;;;;;6.18;2.30;;;;;;;0.10;72.98;96987.22;4995317;28;20019;-73
2021/01/24 06:59:12;;;;;;;5.97;2.17;;;;;;;0.08;74.15;96983.91;4991846;28;20026;-73
2021/01/24 07:01:42;;;;;;;5.95;2.25;;;;;;;0.10;73.44;96990.69;5013673;28;20014;-74
2021/01/24 07:04:17;;;;;;;4.47;2.03;;;;;;;0.20;72.82;96990.44;5001023;28;20062;-73
2021/01/24 07:06:43;;;;;;;2.92;1.70;;;;;;;0.13;72.19;96979.72;4993125;28;20038;-72
2021/01/24 07:09:26;;;;;;;5.82;1.83;;;;;;;0.25;72.28;97003.19;4996157;28;20076;-78
2021/01/24 07:12:00;;;;;;;2.83;1.50;;;;;;;0.20;71.44;96985.13;4999914;28;20050;-72
2021/01/24 07:14:34;;;;;;;4.28;2.08;;;;;;;0.39;72.41;97013.00;4992659;28;20033;-74
2021/01/24 07:17:10;;;;;;;3.30;1.50;;;;;;;0.42;71.22;97018.78;4987910;28;20018;-73
2021/01/24 07:19:43;;;;;;;4.35;1.67;;;;;;;0.40;72.02;97017.31;4995872;28;20026;-73
2021/01/24 07:22:09;;;;;;;5.25;1.83;;;;;;;0.38;71.82;97014.84;4996846;28;20030;-72
2021/01/24 07:24:36;;;;;;;2.72;1.63;;;;;;;0.40;72.02;97004.84;4998259;28;20026;-73
2021/01/24 07:27:01;;;;;;;4.00;1.83;;;;;;;0.42;71.31;97004.66;4995551;28;20029;-74
2021/01/24 07:29:28;;;;;;;3.53;1.70;;;;;;;0.55;70.45;97020.81;4995786;28;20085;-71
2021/01/24 07:31:54;;;;;;;4.53;2.15;;;;;;;0.49;71.12;97005.56;4995626;28;20014;-73
2021/01/24 07:34:24;;;;;;;4.85;2.25;;;;;;;0.33;72.46;96984.47;5017558;28;20026;-72
2021/01/24 07:36:51;;;;;;;4.50;1.63;;;;;;;0.54;72.19;97013.81;5016436;28;20073;-73
2021/01/24 07:39:17;;;;;;;5.20;1.60;;;;;;;0.58;71.21;96999.16;5022173;28;20058;-74
2021/01/24 07:41:47;;;;;;;3.97;1.92;;;;;;;0.58;70.61;97008.97;5014960;28;20026;-75
2021/01/24 07:44:13;;;;;;;5.30;1.88;;;;;;;0.54;71.18;97003.19;5024848;28;20485;-70
2021/01/24 07:46:38;;;;;;;2.85;1.77;;;;;;;0.77;70.73;97045.66;5013241;28;20026;-70
2021/01/24 07:49:04;;;;;;;5.10;1.92;;;;;;;0.78;71.42;97041.16;5015760;28;20030;-71
2021/01/24 07:51:29;;;;;;;4.43;1.80;;;;;;;0.76;71.00;97043.16;5011374;28;20065;-71
2021/01/24 07:53:55;;;;;;;4.50;2.13;;;;;;;0.70;71.09;97034.09;5014705;28;20030;-71
2021/01/24 07:56:20;;;;;;;4.95;1.95;;;;;;;0.71;72.07;97053.53;4998269;28;20031;-71
2021/01/24 07:58:47;;;;;;;3.22;1.45;;;;;;;0.73;71.05;97048.88;5009638;28;20041;-71
2021/01/24 08:01:16;;;;;;;3.75;1.92;;;;;;;0.69;71.55;97048.41;5019329;28;20069;-71
2021/01/24 08:03:42;;;;;;;4.35;2.17;;;;;;;0.75;71.62;97053.00;5012775;28;20025;-74
2021/01/24 08:06:09;;;;;;;4.80;2.30;;;;;;;0.71;71.83;97064.19;5009255;28;20019;-71
2021/01/24 08:08:36;;;;;;;3.50;1.88;;;;;;;0.70;72.01;97059.88;5025166;28;20027;-71
2021/01/24 08:11:02;;;;;;;3.83;1.98;;;;;;;0.76;71.85;97061.81;5017202;28;20026;-71
2021/01/24 08:13:28;;;;;;;4.43;1.63;;;;;;;0.88;72.01;97061.16;5019297;28;20066;-71
2021/01/24 08:16:03;;;;;;;3.58;1.98;;;;;;;0.78;71.97;97044.63;4995786;28;20086;-75
2021/01/24 08:18:30;;;;;;;5.78;2.40;;;;;;;0.87;71.92;97050.72;4995113;28;20034;-76
2021/01/24 08:20:56;;;;;;;4.10;1.85;;;;;;;1.02;71.17;97058.66;5002298;28;20102;-76
2021/01/24 08:23:23;;;;;;;6.88;1.90;;;;;;;0.91;71.24;97043.97;4995247;28;20048;-75
2021/01/24 08:25:48;;;;;;;3.83;2.00;;;;;;;0.89;70.69;97046.00;4999135;28;20105;-74
2021/01/24 08:28:14;;;;;;;6.18;2.53;;;;;;;1.12;71.12;97064.53;4996366;28;20037;-75
2021/01/24 08:30:43;;;;;;;3.47;2.22;;;;;;;1.07;70.45;97054.44;4995798;28;20040;-74
2021/01/24 08:33:17;;;;;;;3.47;1.90;;;;;;;1.19;70.44;97078.75;4997200;28;20097;-75
2021/01/24 08:35:44;;;;;;;3.97;2.08;;;;;;;1.22;71.32;97066.91;4992351;28;20081;-76
2021/01/24 08:38:12;;;;;;;5.35;2.17;;;;;;;1.09;71.76;97091.53;5000871;28;20073;-76
2021/01/24 08:40:38;;;;;;;5.45;1.65;;;;;;;1.11;71.60;97094.84;4996103;28;20030;-73
2021/01/24 08:43:04;;;;;;;3.53;1.67;;;;;;;1.09;71.09;97087.03;4995568;28;20053;-72
2021/01/24 08:45:30;;;;;;;7.60;2.03;;;;;;;1.24;71.60;97091.53;4994478;28;20058;-72
2021/01/24 08:48:00;;;;;;;6.50;2.03;;;;;;;0.97;72.39;97075.22;4986498;28;20452;-72
2021/01/24 08:50:36;;;;;;;3.97;2.03;;;;;;;0.81;74.10;97084.22;4987938;28;20052;-74
2021/01/24 08:53:07;;;;;;;3.88;2.20;;;;;;;0.87;75.53;97111.94;4987931;28;20080;-76
2021/01/24 08:55:49;;;;;;;3.17;2.10;;;;;;;0.96;76.32;97115.31;4993829;28;20045;-76
2021/01/24 08:58:28;;;;;;;4.80;2.45;;;;;;;0.83;76.92;97119.44;4985067;28;20110;-76
2021/01/24 09:01:10;;;;;;;5.43;2.28;;;;;;;0.69;78.07;97138.09;4986790;28;20030;-76
2021/01/24 09:03:36;;;;;;;8.57;2.70;;;;;;;0.36;79.03;97101.16;4992311;28;20334;-76
2021/01/24 09:06:17;;;;;;;4.43;2.25;;;;;;;0.52;80.11;97106.31;4993860;28;20057;-76
2021/01/24 09:08:53;;;;;;;8.07;2.58;;;;;;;0.42;81.34;97095.13;4988386;28;20030;-76
2021/01/24 09:11:19;;;;;;;5.25;2.65;;;;;;;0.43;81.69;97118.03;4993731;28;20034;-69
2021/01/24 09:13:44;;;;;;;5.03;2.60;;;;;;;0.32;82.20;97110.50;4984860;28;20030;-72
2021/01/24 09:16:09;;;;;;;4.93;2.63;;;;;;;0.36;82.61;97136.53;4994301;28;20041;-76
2021/01/24 09:18:35;;;;;;;4.25;2.38;;;;;;;0.32;82.70;97135.28;4994637;28;20061;-76
2021/01/24 09:21:03;;;;;;;4.07;2.38;;;;;;;0.13;83.77;97104.69;4994952;28;20018;-77
2021/01/24 09:23:28;;;;;;;3.70;2.35;;;;;;;0.34;83.41;97143.91;4997026;28;20064;-70
2021/01/24 09:25:54;;;;;;;5.63;2.85;;;;;;;0.26;83.67;97125.31;4988879;28;20061;-70
2021/01/24 09:28:19;;;;;;;3.65;2.17;;;;;;;0.11;83.91;97143.09;4977492;28;20027;-69
2021/01/24 09:30:45;;;;;;;4.63;2.53;;;;;;;0.21;83.58;97128.56;4975996;28;20066;-69
2021/01/24 09:33:10;;;;;;;5.93;2.42;;;;;;;0.31;84.13;97140.75;4992025;28;20026;-69
2021/01/24 09:35:35;;;;;;;5.15;2.30;;;;;;;0.40;83.21;97135.19;4976336;28;20396;-70
2021/01/24 09:38:01;;;;;;;4.13;2.53;;;;;;;0.49;83.73;97157.22;4977604;28;20378;-71
2021/01/24 09:40:26;;;;;;;3.13;2.00;;;;;;;0.53;83.65;97139.09;4985183;28;20034;-70
2021/01/24 09:42:51;;;;;;;4.47;2.83;;;;;;;0.38;84.81;97152.34;4991234;28;20071;-69
2021/01/24 09:45:17;;;;;;;5.10;2.97;;;;;;;0.46;83.72;97148.78;4991852;28;20044;-69
2021/01/24 09:47:42;;;;;;;4.05;2.45;;;;;;;0.35;84.02;97145.53;4990627;28;20045;-69
2021/01/24 09:50:10;;;;;;;7.20;3.05;;;;;;;0.25;84.26;97142.31;4973524;28;20109;-69
2021/01/24 09:52:35;;;;;;;4.53;2.40;;;;;;;0.61;83.70;97153.13;4990124;28;20120;-69
2021/01/24 09:55:01;;;;;;;5.43;2.88;;;;;;;0.58;84.29;97166.78;4982278;28;20620;-69
2021/01/24 09:57:26;;;;;;;5.28;2.92;;;;;;;0.57;84.13;97173.09;4989680;28;20045;-69
2021/01/24 09:59:51;;;;;;;4.35;2.67;;;;;;;0.62;84.37;97167.25;4987791;28;20035;-70
2021/01/24 10:02:17;;;;;;;9.45;2.75;;;;;;;0.47;84.08;97164.53;4994916;28;20059;-70
2021/01/24 10:04:42;;;;;;;8.38;3.20;;;;;;;0.53;83.91;97160.38;4988212;28;20539;-70
2021/01/24 10:07:07;;;;;;;6.03;3.15;;;;;;;0.66;83.73;97176.53;4983761;28;20030;-71
2021/01/24 10:09:33;;;;;;;5.82;3.15;;;;;;;0.82;83.51;97168.38;4989523;28;20520;-70
2021/01/24 10:11:58;;;;;;;7.47;2.80;;;;;;;0.59;84.15;97175.59;4985514;28;20076;-71
2021/01/24 10:14:23;;;;;;;5.10;2.83;;;;;;;0.74;83.66;97167.66;4982915;28;20045;-70
2021/01/24 10:16:49;;;;;;;4.22;2.17;;;;;;;0.77;83.50;97164.63;4990775;28;20034;-70
2021/01/24 10:19:14;;;;;;;6.35;2.72;;;;;;;1.11;83.01;97174.75;4977336;28;20033;-70
2021/01/24 10:21:39;;;;;;;7.00;2.80;;;;;;;0.93;82.85;97183.09;4990995;28;20026;-71
2021/01/24 10:24:05;;;;;;;4.13;2.50;;;;;;;0.61;83.21;97171.75;4984973;28;20359;-71
2021/01/24 10:26:30;;;;;;;8.57;3.05;;;;;;;0.88;82.73;97169.50;4987135;28;20034;-70
2021/01/24 10:28:55;;;;;;;5.72;2.65;;;;;;;0.85;82.68;97188.50;4987662;28;20045;-71
2021/01/24 10:31:21;;;;;;;4.13;2.67;;;;;;;0.90;82.43;97199.44;4978864;28;20549;-71
2021/01/24 10:33:46;;;;;;;5.05;2.40;;;;;;;0.91;82.78;97179.78;4985585;28;20034;-70
2021/01/24 10:36:11;;;;;;;6.63;2.80;;;;;;;1.13;82.29;97177.19;4971376;28;20038;-70
2021/01/24 10:38:39;;;;;;;8.35;2.42;;;;;;;1.13;81.53;97177.19;4978800;28;20037;-70
2021/01/24 10:41:04;;;;;;;6.05;2.72;;;;;;;1.27;81.22;97179.88;4980643;28;20034;-69
2021/01/24 10:43:29;;;;;;;6.20;2.45;;;;;;;1.33;81.46;97193.47;4978678;28;20042;-70
2021/01/24 10:45:54;;;;;;;4.78;2.30;;;;;;;0.97;81.10;97197.69;4990943;28;20724;-70
2021/01/24 10:48:20;;;;;;;3.88;2.38;;;;;;;0.94;82.05;97192.72;4990916;28;20030;-69
2021/01/24 10:50:45;;;;;;;3.38;2.08;;;;;;;1.40;81.35;97197.88;4989556;28;20042;-70
2021/01/24 10:53:10;;;;;;;5.78;2.25;;;;;;;1.02;81.80;97179.34;4990815;28;20036;-69
2021/01/24 10:55:36;;;;;;;5.40;2.20;;;;;;;1.06;81.93;97215.22;4982249;28;20030;-69
2021/01/24 10:58:01;;;;;;;4.90;2.13;;;;;;;1.45;80.23;97203.47;4980364;28;20069;-70
2021/01/24 11:00:27;;;;;;;4.70;2.33;;;;;;;1.44;79.59;97206.31;4976666;28;20033;-69
2021/01/24 11:02:52;;;;;;;5.30;2.30;;;;;;;0.99;80.45;97206.31;4986936;28;20056;-69
2021/01/24 11:05:18;;;;;;;3.92;2.00;;;;;;;1.06;80.18;97207.25;4977894;28;20068;-70
2021/01/24 11:07:43;;;;;;;4.13;2.00;;;;;;;1.33;79.38;97212.94;4983735;28;20042;-69
2021/01/24 11:10:10;;;;;;;3.58;1.95;;;;;;;1.20;78.71;97196.78;4988471;28;20041;-69
2021/01/24 11:12:36;;;;;;;6.22;2.00;;;;;;;1.28;79.44;97208.19;4983994;28;20026;-69
2021/01/24 11:15:01;;;;;;;3.58;2.10;;;;;;;1.30;78.67;97219.47;4973412;28;20484;-70
2021/01/24 11:17:27;;;;;;;5.18;2.30;;;;;;;1.60;77.66;97215.94;4978923;28;20416;-69
2021/01/24 11:19:52;;;;;;;5.35;2.92;;;;;;;1.60;78.13;97207.97;4991690;28;20034;-69
2021/01/24 11:22:19;;;;;;;2.88;1.90;;;;;;;1.51;77.53;97218.72;4989217;28;20041;-69
2021/01/24 11:24:45;;;;;;;3.55;1.80;;;;;;;1.71;77.25;97218.16;4984258;28;20139;-69
2021/01/24 11:27:10;;;;;;;8.75;2.33;;;;;;;1.73;76.95;97218.81;4980032;28;20027;-70
2021/01/24 11:29:36;;;;;;;5.53;2.10;;;;;;;1.50;76.53;97201.09;4972023;28;20030;-69
2021/01/24 11:32:02;;;;;;;4.20;2.00;;;;;;;1.44;76.58;97203.66;4978666;28;20657;-70
2021/01/24 11:34:27;;;;;;;4.47;2.25;;;;;;;1.61;77.65;97215.78;4979834;28;20108;-70
2021/01/24 11:36:53;;;;;;;4.43;2.30;;;;;;;1.37;77.83;97211.56;4993974;28;20034;-70
2021/01/24 11:39:19;;;;;;;5.22;2.55;;;;;;;1.45;77.87;97223.97;4996730;28;20062;-70
2021/01/24 11:41:44;;;;;;;4.75;2.42;;;;;;;1.63;77.09;97227.09;4984970;28;20054;-70